sensor_id;sensor_type;location;lat;lon;timestamp;temperature;humidity
3912;DHT22;1971;51.778;10.330;2023-03-14T00:02:15;8.50;99.90
3912;DHT22;1971;51.778;10.330;2023-03-14T00:04:45;8.50;99.90
3912;DHT22;1971;51.778;10.330;2023-03-14T00:07:16;8.50;99.90
3912;DHT22;1971;51.778;10.330;2023-03-14T00:09:46;8.50;99.90
3912;DHT22;1971;51.778;10.330;2023-03-14T00:12:17;8.40;99.90
3912;DHT22;1971;51.778;10.330;2023-03-14T00:14:50;8.40;99.90
3912;DHT22;1971;51.778;10.330;2023-03-14T00:17:20;8.30;99.90
3912;DHT22;1971;51.778;10.330;2023-03-14T00:19:50;8.30;99.90
3912;DHT22;1971;51.778;10.330;2023-03-14T00:22:21;8.30;99.90
3912;DHT22;1971;51.778;10.330;2023-03-14T00:24:51;8.50;99.90
3912;DHT22;1971;51.778;10.330;2023-03-14T00:27:20;8.40;99.90
3912;DHT22;1971;51.778;10.330;2023-03-14T00:29:53;8.40;99.90
3912;DHT22;1971;51.778;10.330;2023-03-14T00:32:24;8.60;99.90
3912;DHT22;1971;51.778;10.330;2023-03-14T00:34:54;8.30;99.90
3912;DHT22;1971;51.778;10.330;2023-03-14T00:37:26;8.40;99.90
3912;DHT22;1971;51.778;10.330;2023-03-14T00:39:56;8.40;99.90
3912;DHT22;1971;51.778;10.330;2023-03-14T00:42:26;8.30;99.90
3912;DHT22;1971;51.778;10.330;2023-03-14T00:45:03;8.30;99.90
3912;DHT22;1971;51.778;10.330;2023-03-14T00:47:34;8.30;99.90
3912;DHT22;1971;51.778;10.330;2023-03-14T00:50:06;8.10;99.90
3912;DHT22;1971;51.778;10.330;2023-03-14T00:52:38;8.60;99.90
3912;DHT22;1971;51.778;10.330;2023-03-14T00:55:09;8.40;99.90
3912;DHT22;1971;51.778;10.330;2023-03-14T00:57:39;8.40;99.90
3912;DHT22;1971;51.778;10.330;2023-03-14T01:00:13;8.70;99.90
3912;DHT22;1971;51.778;10.330;2023-03-14T01:02:43;8.40;99.90
3912;DHT22;1971;51.778;10.330;2023-03-14T01:05:13;8.40;99.90
3912;DHT22;1971;51.778;10.330;2023-03-14T01:07:44;8.20;99.90
3912;DHT22;1971;51.778;10.330;2023-03-14T01:10:15;8.10;99.90
3912;DHT22;1971;51.778;10.330;2023-03-14T01:12:45;8.30;99.90
3912;DHT22;1971;51.778;10.330;2023-03-14T01:15:18;8.40;99.90
3912;DHT22;1971;51.778;10.330;2023-03-14T01:17:49;8.30;99.90
3912;DHT22;1971;51.778;10.330;2023-03-14T01:20:19;8.30;99.90
3912;DHT22;1971;51.778;10.330;2023-03-14T01:22:50;8.30;99.90
3912;DHT22;1971;51.778;10.330;2023-03-14T01:25:20;8.40;99.90
3912;DHT22;1971;51.778;10.330;2023-03-14T01:27:50;8.20;99.90
3912;DHT22;1971;51.778;10.330;2023-03-14T01:30:23;8.20;99.90
3912;DHT22;1971;51.778;10.330;2023-03-14T01:32:53;8.20;99.90
3912;DHT22;1971;51.778;10.330;2023-03-14T01:35:23;8.20;99.90
3912;DHT22;1971;51.778;10.330;2023-03-14T01:37:55;8.20;99.90
3912;DHT22;1971;51.778;10.330;2023-03-14T01:40:26;8.30;99.90
3912;DHT22;1971;51.778;10.330;2023-03-14T01:42:57;8.10;99.90
3912;DHT22;1971;51.778;10.330;2023-03-14T01:48:45;8.10;99.90
3912;DHT22;1971;51.778;10.330;2023-03-14T01:51:19;8.00;99.90
3912;DHT22;1971;51.778;10.330;2023-03-14T01:53:52;8.10;99.90
3912;DHT22;1971;51.778;10.330;2023-03-14T01:56:25;8.10;99.90
3912;DHT22;1971;51.778;10.330;2023-03-14T01:58:59;8.10;99.90
3912;DHT22;1971;51.778;10.330;2023-03-14T02:01:31;8.10;99.90
3912;DHT22;1971;51.778;10.330;2023-03-14T02:04:05;8.10;99.90
3912;DHT22;1971;51.778;10.330;2023-03-14T02:06:42;8.10;99.90
3912;DHT22;1971;51.778;10.330;2023-03-14T02:09:16;8.30;99.90
3912;DHT22;1971;51.778;10.330;2023-03-14T02:11:47;8.10;99.90
3912;DHT22;1971;51.778;10.330;2023-03-14T02:14:41;8.10;99.90
3912;DHT22;1971;51.778;10.330;2023-03-14T02:17:28;8.10;99.90
3912;DHT22;1971;51.778;10.330;2023-03-14T02:20:30;8.00;99.90
3912;DHT22;1971;51.778;10.330;2023-03-14T02:23:03;8.00;99.90
3912;DHT22;1971;51.778;10.330;2023-03-14T02:25:39;8.00;99.90
3912;DHT22;1971;51.778;10.330;2023-03-14T02:28:13;8.30;99.90
3912;DHT22;1971;51.778;10.330;2023-03-14T02:30:46;7.80;99.90
3912;DHT22;1971;51.778;10.330;2023-03-14T02:33:19;7.80;99.90
3912;DHT22;1971;51.778;10.330;2023-03-14T02:35:53;7.80;99.90
3912;DHT22;1971;51.778;10.330;2023-03-14T02:38:29;7.80;99.90
3912;DHT22;1971;51.778;10.330;2023-03-14T02:41:03;7.70;99.90
3912;DHT22;1971;51.778;10.330;2023-03-14T02:43:41;7.70;99.90
3912;DHT22;1971;51.778;10.330;2023-03-14T02:46:13;7.70;99.90
3912;DHT22;1971;51.778;10.330;2023-03-14T02:48:45;7.70;99.90
3912;DHT22;1971;51.778;10.330;2023-03-14T02:51:18;7.70;99.90
3912;DHT22;1971;51.778;10.330;2023-03-14T02:53:48;7.70;99.90
3912;DHT22;1971;51.778;10.330;2023-03-14T02:56:19;7.70;99.90
3912;DHT22;1971;51.778;10.330;2023-03-14T02:58:52;7.70;99.90
3912;DHT22;1971;51.778;10.330;2023-03-14T03:01:40;7.90;99.90
3912;DHT22;1971;51.778;10.330;2023-03-14T03:04:10;7.60;99.90
3912;DHT22;1971;51.778;10.330;2023-03-14T03:06:40;7.80;99.90
3912;DHT22;1971;51.778;10.330;2023-03-14T03:09:11;7.60;99.90
3912;DHT22;1971;51.778;10.330;2023-03-14T03:11:42;7.80;99.90
3912;DHT22;1971;51.778;10.330;2023-03-14T03:14:20;7.60;99.90
3912;DHT22;1971;51.778;10.330;2023-03-14T03:16:50;7.50;99.90
3912;DHT22;1971;51.778;10.330;2023-03-14T03:19:21;7.60;99.90
3912;DHT22;1971;51.778;10.330;2023-03-14T03:21:54;7.60;99.90
3912;DHT22;1971;51.778;10.330;2023-03-14T03:24:25;7.60;99.90
3912;DHT22;1971;51.778;10.330;2023-03-14T03:26:55;7.70;99.90
3912;DHT22;1971;51.778;10.330;2023-03-14T03:29:28;8.00;99.90
3912;DHT22;1971;51.778;10.330;2023-03-14T03:32:00;7.90;99.90
3912;DHT22;1971;51.778;10.330;2023-03-14T03:34:30;7.80;99.90
3912;DHT22;1971;51.778;10.330;2023-03-14T03:37:00;7.70;99.90
3912;DHT22;1971;51.778;10.330;2023-03-14T03:39:35;7.70;99.90
3912;DHT22;1971;51.778;10.330;2023-03-14T03:42:05;7.70;99.90
3912;DHT22;1971;51.778;10.330;2023-03-14T03:44:37;7.70;99.90
3912;DHT22;1971;51.778;10.330;2023-03-14T03:47:08;7.70;99.90
3912;DHT22;1971;51.778;10.330;2023-03-14T03:49:38;7.70;99.90
3912;DHT22;1971;51.778;10.330;2023-03-14T03:52:10;7.70;99.90
3912;DHT22;1971;51.778;10.330;2023-03-14T03:54:40;7.60;99.90
3912;DHT22;1971;51.778;10.330;2023-03-14T03:57:10;7.80;99.90
3912;DHT22;1971;51.778;10.330;2023-03-14T03:59:42;7.60;99.90
3912;DHT22;1971;51.778;10.330;2023-03-14T04:02:13;7.70;99.90
3912;DHT22;1971;51.778;10.330;2023-03-14T04:04:43;7.80;99.90
3912;DHT22;1971;51.778;10.330;2023-03-14T04:07:14;7.90;99.90
3912;DHT22;1971;51.778;10.330;2023-03-14T04:09:45;7.80;99.90
3912;DHT22;1971;51.778;10.330;2023-03-14T04:12:31;7.70;99.90
3912;DHT22;1971;51.778;10.330;2023-03-14T04:15:11;7.60;99.90
3912;DHT22;1971;51.778;10.330;2023-03-14T04:17:46;7.60;99.90
3912;DHT22;1971;51.778;10.330;2023-03-14T04:20:16;7.90;99.90
3912;DHT22;1971;51.778;10.330;2023-03-14T04:22:46;7.50;99.90
3912;DHT22;1971;51.778;10.330;2023-03-14T04:25:16;7.90;99.90
3912;DHT22;1971;51.778;10.330;2023-03-14T04:27:52;7.50;99.90
3912;DHT22;1971;51.778;10.330;2023-03-14T04:30:27;7.80;99.90
3912;DHT22;1971;51.778;10.330;2023-03-14T04:33:01;7.60;99.90
3912;DHT22;1971;51.778;10.330;2023-03-14T04:35:34;7.50;99.90
3912;DHT22;1971;51.778;10.330;2023-03-14T04:38:08;7.50;99.90
3912;DHT22;1971;51.778;10.330;2023-03-14T04:40:40;7.30;99.90
3912;DHT22;1971;51.778;10.330;2023-03-14T04:43:12;7.50;99.90
3912;DHT22;1971;51.778;10.330;2023-03-14T04:46:00;7.50;99.90
3912;DHT22;1971;51.778;10.330;2023-03-14T04:48:31;7.50;99.90
3912;DHT22;1971;51.778;10.330;2023-03-14T04:51:01;7.80;99.90
3912;DHT22;1971;51.778;10.330;2023-03-14T04:53:33;7.90;99.90
3912;DHT22;1971;51.778;10.330;2023-03-14T04:56:09;7.70;99.90
3912;DHT22;1971;51.778;10.330;2023-03-14T04:58:42;7.60;99.90
3912;DHT22;1971;51.778;10.330;2023-03-14T05:01:18;7.50;99.90
3912;DHT22;1971;51.778;10.330;2023-03-14T05:04:23;7.50;99.90
3912;DHT22;1971;51.778;10.330;2023-03-14T05:07:03;7.60;99.90
3912;DHT22;1971;51.778;10.330;2023-03-14T05:09:51;7.30;99.90
3912;DHT22;1971;51.778;10.330;2023-03-14T05:12:43;7.80;99.90
3912;DHT22;1971;51.778;10.330;2023-03-14T05:15:39;7.60;99.90
3912;DHT22;1971;51.778;10.330;2023-03-14T05:18:38;7.50;99.90
3912;DHT22;1971;51.778;10.330;2023-03-14T05:21:31;7.50;99.90
3912;DHT22;1971;51.778;10.330;2023-03-14T05:24:19;7.50;99.90
3912;DHT22;1971;51.778;10.330;2023-03-14T05:27:13;7.40;99.90
3912;DHT22;1971;51.778;10.330;2023-03-14T05:30:08;7.40;99.90
3912;DHT22;1971;51.778;10.330;2023-03-14T05:33:01;7.30;99.90
3912;DHT22;1971;51.778;10.330;2023-03-14T05:35:59;7.30;99.90
3912;DHT22;1971;51.778;10.330;2023-03-14T05:38:56;7.30;99.90
3912;DHT22;1971;51.778;10.330;2023-03-14T05:41:49;7.50;99.90
3912;DHT22;1971;51.778;10.330;2023-03-14T05:44:42;7.20;99.90
3912;DHT22;1971;51.778;10.330;2023-03-14T05:47:31;7.20;99.90
3912;DHT22;1971;51.778;10.330;2023-03-14T05:50:30;7.20;99.90
3912;DHT22;1971;51.778;10.330;2023-03-14T05:53:25;7.20;99.90
3912;DHT22;1971;51.778;10.330;2023-03-14T05:56:31;7.20;99.90
3912;DHT22;1971;51.778;10.330;2023-03-14T05:59:16;6.90;99.90
3912;DHT22;1971;51.778;10.330;2023-03-14T06:02:02;6.80;99.90
3912;DHT22;1971;51.778;10.330;2023-03-14T06:04:43;6.80;99.90
3912;DHT22;1971;51.778;10.330;2023-03-14T06:07:13;6.70;99.90
3912;DHT22;1971;51.778;10.330;2023-03-14T06:09:46;6.50;99.90
3912;DHT22;1971;51.778;10.330;2023-03-14T06:12:18;6.70;99.90
3912;DHT22;1971;51.778;10.330;2023-03-14T06:14:48;6.70;99.90
3912;DHT22;1971;51.778;10.330;2023-03-14T06:17:18;6.60;99.90
3912;DHT22;1971;51.778;10.330;2023-03-14T06:19:54;6.80;99.90
3912;DHT22;1971;51.778;10.330;2023-03-14T06:22:24;6.50;99.90
3912;DHT22;1971;51.778;10.330;2023-03-14T06:24:57;6.70;99.90
3912;DHT22;1971;51.778;10.330;2023-03-14T06:27:28;7.00;99.90
3912;DHT22;1971;51.778;10.330;2023-03-14T06:29:58;6.70;99.90
3912;DHT22;1971;51.778;10.330;2023-03-14T06:32:29;6.80;99.90
3912;DHT22;1971;51.778;10.330;2023-03-14T06:35:05;6.90;99.90
3912;DHT22;1971;51.778;10.330;2023-03-14T06:37:39;6.80;99.90
3912;DHT22;1971;51.778;10.330;2023-03-14T06:40:12;6.80;99.90
3912;DHT22;1971;51.778;10.330;2023-03-14T06:42:55;6.80;99.90
3912;DHT22;1971;51.778;10.330;2023-03-14T06:45:27;6.90;99.90
3912;DHT22;1971;51.778;10.330;2023-03-14T06:47:59;6.90;99.90
3912;DHT22;1971;51.778;10.330;2023-03-14T06:50:38;6.90;99.90
3912;DHT22;1971;51.778;10.330;2023-03-14T06:53:08;7.00;99.90
3912;DHT22;1971;51.778;10.330;2023-03-14T06:55:43;7.00;99.90
3912;DHT22;1971;51.778;10.330;2023-03-14T06:58:16;7.40;99.90
3912;DHT22;1971;51.778;10.330;2023-03-14T07:00:46;7.30;99.90
3912;DHT22;1971;51.778;10.330;2023-03-14T07:03:21;7.10;99.90
3912;DHT22;1971;51.778;10.330;2023-03-14T07:05:54;7.10;99.90
3912;DHT22;1971;51.778;10.330;2023-03-14T07:08:24;7.20;99.90
3912;DHT22;1971;51.778;10.330;2023-03-14T07:10:58;7.40;99.90
3912;DHT22;1971;51.778;10.330;2023-03-14T07:13:29;7.30;99.90
3912;DHT22;1971;51.778;10.330;2023-03-14T07:16:04;7.30;99.90
3912;DHT22;1971;51.778;10.330;2023-03-14T07:18:36;7.30;99.90
3912;DHT22;1971;51.778;10.330;2023-03-14T07:21:07;7.30;99.90
3912;DHT22;1971;51.778;10.330;2023-03-14T07:23:38;7.80;99.90
3912;DHT22;1971;51.778;10.330;2023-03-14T07:26:11;7.40;99.90
3912;DHT22;1971;51.778;10.330;2023-03-14T07:28:46;7.50;99.90
3912;DHT22;1971;51.778;10.330;2023-03-14T07:31:18;7.50;99.90
3912;DHT22;1971;51.778;10.330;2023-03-14T07:33:48;7.50;99.90
3912;DHT22;1971;51.778;10.330;2023-03-14T07:36:20;7.50;99.90
3912;DHT22;1971;51.778;10.330;2023-03-14T07:38:52;7.70;99.90
3912;DHT22;1971;51.778;10.330;2023-03-14T07:41:35;7.70;99.90
3912;DHT22;1971;51.778;10.330;2023-03-14T07:44:23;7.90;99.90
3912;DHT22;1971;51.778;10.330;2023-03-14T07:46:53;7.60;99.90
3912;DHT22;1971;51.778;10.330;2023-03-14T07:49:23;7.60;99.90
3912;DHT22;1971;51.778;10.330;2023-03-14T07:51:55;7.90;99.90
3912;DHT22;1971;51.778;10.330;2023-03-14T07:54:25;7.70;99.90
3912;DHT22;1971;51.778;10.330;2023-03-14T07:56:58;7.70;99.90
3912;DHT22;1971;51.778;10.330;2023-03-14T07:59:28;7.70;99.90
3912;DHT22;1971;51.778;10.330;2023-03-14T08:01:58;7.70;99.90
3912;DHT22;1971;51.778;10.330;2023-03-14T08:04:32;7.70;99.90
3912;DHT22;1971;51.778;10.330;2023-03-14T08:07:04;7.90;99.90
3912;DHT22;1971;51.778;10.330;2023-03-14T08:09:33;7.80;99.90
3912;DHT22;1971;51.778;10.330;2023-03-14T08:12:07;7.60;99.90
3912;DHT22;1971;51.778;10.330;2023-03-14T08:14:37;7.60;99.90
3912;DHT22;1971;51.778;10.330;2023-03-14T08:17:07;7.80;99.90
3912;DHT22;1971;51.778;10.330;2023-03-14T08:19:37;7.60;99.90
3912;DHT22;1971;51.778;10.330;2023-03-14T08:22:08;7.70;99.90
3912;DHT22;1971;51.778;10.330;2023-03-14T08:24:38;7.70;99.90
3912;DHT22;1971;51.778;10.330;2023-03-14T08:27:11;7.70;99.90
3912;DHT22;1971;51.778;10.330;2023-03-14T08:29:42;7.90;99.90
3912;DHT22;1971;51.778;10.330;2023-03-14T08:32:12;7.70;99.90
3912;DHT22;1971;51.778;10.330;2023-03-14T08:34:42;7.90;99.90
3912;DHT22;1971;51.778;10.330;2023-03-14T08:37:12;7.80;99.90
3912;DHT22;1971;51.778;10.330;2023-03-14T08:39:53;7.80;99.90
3912;DHT22;1971;51.778;10.330;2023-03-14T08:42:26;7.90;99.90
3912;DHT22;1971;51.778;10.330;2023-03-14T08:44:56;7.80;99.90
3912;DHT22;1971;51.778;10.330;2023-03-14T08:47:26;7.70;99.90
3912;DHT22;1971;51.778;10.330;2023-03-14T08:49:57;7.60;99.90
3912;DHT22;1971;51.778;10.330;2023-03-14T08:52:27;7.80;99.90
3912;DHT22;1971;51.778;10.330;2023-03-14T08:54:57;7.80;99.90
3912;DHT22;1971;51.778;10.330;2023-03-14T08:57:30;8.20;99.90
3912;DHT22;1971;51.778;10.330;2023-03-14T09:00:00;8.10;99.90
3912;DHT22;1971;51.778;10.330;2023-03-14T09:02:31;7.90;99.90
3912;DHT22;1971;51.778;10.330;2023-03-14T09:05:01;7.90;99.90
3912;DHT22;1971;51.778;10.330;2023-03-14T09:07:31;8.10;99.90
3912;DHT22;1971;51.778;10.330;2023-03-14T09:10:02;7.90;99.90
3912;DHT22;1971;51.778;10.330;2023-03-14T09:12:34;8.00;99.90
3912;DHT22;1971;51.778;10.330;2023-03-14T09:15:06;7.90;99.90
3912;DHT22;1971;51.778;10.330;2023-03-14T09:17:36;7.90;99.90
3912;DHT22;1971;51.778;10.330;2023-03-14T09:20:08;7.70;99.90
3912;DHT22;1971;51.778;10.330;2023-03-14T09:22:38;7.70;99.90
3912;DHT22;1971;51.778;10.330;2023-03-14T09:25:09;7.90;99.90
3912;DHT22;1971;51.778;10.330;2023-03-14T09:27:43;8.10;99.90
3912;DHT22;1971;51.778;10.330;2023-03-14T09:30:13;8.20;99.90
3912;DHT22;1971;51.778;10.330;2023-03-14T09:32:44;8.20;99.90
3912;DHT22;1971;51.778;10.330;2023-03-14T09:35:14;8.00;99.90
3912;DHT22;1971;51.778;10.330;2023-03-14T09:37:46;8.10;99.90
3912;DHT22;1971;51.778;10.330;2023-03-14T09:40:18;8.10;99.90
3912;DHT22;1971;51.778;10.330;2023-03-14T09:42:54;8.00;99.90
3912;DHT22;1971;51.778;10.330;2023-03-14T09:45:28;8.10;99.90
3912;DHT22;1971;51.778;10.330;2023-03-14T09:48:00;8.00;99.90
3912;DHT22;1971;51.778;10.330;2023-03-14T09:50:37;8.00;99.90
3912;DHT22;1971;51.778;10.330;2023-03-14T09:53:12;8.00;99.90
3912;DHT22;1971;51.778;10.330;2023-03-14T09:55:45;8.30;99.90
3912;DHT22;1971;51.778;10.330;2023-03-14T09:58:20;8.00;99.90
3912;DHT22;1971;51.778;10.330;2023-03-14T10:00:52;8.00;99.90
3912;DHT22;1971;51.778;10.330;2023-03-14T10:03:26;8.10;99.90
3912;DHT22;1971;51.778;10.330;2023-03-14T10:05:59;8.10;99.90
3912;DHT22;1971;51.778;10.330;2023-03-14T10:08:29;8.30;99.90
3912;DHT22;1971;51.778;10.330;2023-03-14T10:10:59;8.10;99.90
3912;DHT22;1971;51.778;10.330;2023-03-14T10:13:32;8.20;99.90
3912;DHT22;1971;51.778;10.330;2023-03-14T10:16:04;8.30;99.90
3912;DHT22;1971;51.778;10.330;2023-03-14T10:18:35;8.10;99.90
3912;DHT22;1971;51.778;10.330;2023-03-14T10:21:07;8.20;99.90
3912;DHT22;1971;51.778;10.330;2023-03-14T10:23:37;8.10;99.90
3912;DHT22;1971;51.778;10.330;2023-03-14T10:26:12;8.20;99.90
3912;DHT22;1971;51.778;10.330;2023-03-14T10:28:47;8.20;99.90
3912;DHT22;1971;51.778;10.330;2023-03-14T10:31:18;8.20;99.90
3912;DHT22;1971;51.778;10.330;2023-03-14T10:33:58;8.10;99.90
3912;DHT22;1971;51.778;10.330;2023-03-14T10:36:29;8.10;99.90
3912;DHT22;1971;51.778;10.330;2023-03-14T10:39:29;8.30;99.90
3912;DHT22;1971;51.778;10.330;2023-03-14T10:42:05;8.10;99.90
3912;DHT22;1971;51.778;10.330;2023-03-14T10:44:39;8.30;99.90
3912;DHT22;1971;51.778;10.330;2023-03-14T10:47:17;8.00;99.90
3912;DHT22;1971;51.778;10.330;2023-03-14T10:49:47;8.00;99.90
3912;DHT22;1971;51.778;10.330;2023-03-14T10:52:22;8.00;99.90
3912;DHT22;1971;51.778;10.330;2023-03-14T10:55:13;7.90;99.90
3912;DHT22;1971;51.778;10.330;2023-03-14T10:57:44;8.20;99.90
3912;DHT22;1971;51.778;10.330;2023-03-14T11:00:19;7.90;99.90
3912;DHT22;1971;51.778;10.330;2023-03-14T11:03:01;8.00;99.90
3912;DHT22;1971;51.778;10.330;2023-03-14T11:05:37;8.00;99.90
3912;DHT22;1971;51.778;10.330;2023-03-14T11:08:12;8.00;99.90
3912;DHT22;1971;51.778;10.330;2023-03-14T11:10:46;8.20;99.90
3912;DHT22;1971;51.778;10.330;2023-03-14T11:13:22;8.00;99.90
3912;DHT22;1971;51.778;10.330;2023-03-14T11:15:59;8.30;99.90
3912;DHT22;1971;51.778;10.330;2023-03-14T11:18:48;8.20;99.90
3912;DHT22;1971;51.778;10.330;2023-03-14T11:21:23;8.20;99.90
3912;DHT22;1971;51.778;10.330;2023-03-14T11:24:11;8.30;99.90
3912;DHT22;1971;51.778;10.330;2023-03-14T11:26:47;8.20;99.90
3912;DHT22;1971;51.778;10.330;2023-03-14T11:29:21;8.10;99.90
3912;DHT22;1971;51.778;10.330;2023-03-14T11:32:02;8.20;99.90
3912;DHT22;1971;51.778;10.330;2023-03-14T11:34:40;8.40;99.90
3912;DHT22;1971;51.778;10.330;2023-03-14T11:37:21;8.10;99.90
3912;DHT22;1971;51.778;10.330;2023-03-14T11:40:00;8.30;99.90
3912;DHT22;1971;51.778;10.330;2023-03-14T11:42:33;8.10;99.90
3912;DHT22;1971;51.778;10.330;2023-03-14T11:45:04;8.40;99.90
3912;DHT22;1971;51.778;10.330;2023-03-14T11:47:43;8.10;99.90
3912;DHT22;1971;51.778;10.330;2023-03-14T11:50:21;8.00;99.90
3912;DHT22;1971;51.778;10.330;2023-03-14T11:52:55;8.10;99.90
3912;DHT22;1971;51.778;10.330;2023-03-14T11:55:30;7.90;99.90
3912;DHT22;1971;51.778;10.330;2023-03-14T11:58:09;8.00;99.90
3912;DHT22;1971;51.778;10.330;2023-03-14T12:00:41;7.90;99.90
3912;DHT22;1971;51.778;10.330;2023-03-14T12:03:19;8.20;99.90
3912;DHT22;1971;51.778;10.330;2023-03-14T12:06:00;8.10;99.90
3912;DHT22;1971;51.778;10.330;2023-03-14T12:08:42;8.10;99.90
3912;DHT22;1971;51.778;10.330;2023-03-14T12:11:18;8.10;99.90
3912;DHT22;1971;51.778;10.330;2023-03-14T12:13:50;8.30;99.90
3912;DHT22;1971;51.778;10.330;2023-03-14T12:16:34;8.00;99.90
3912;DHT22;1971;51.778;10.330;2023-03-14T12:19:31;8.20;99.90
3912;DHT22;1971;51.778;10.330;2023-03-14T12:22:27;8.20;99.90
3912;DHT22;1971;51.778;10.330;2023-03-14T12:25:02;8.30;99.90
3912;DHT22;1971;51.778;10.330;2023-03-14T12:27:44;8.30;99.90
3912;DHT22;1971;51.778;10.330;2023-03-14T12:30:27;8.20;99.90
3912;DHT22;1971;51.778;10.330;2023-03-14T12:39:29;8.20;99.90
3912;DHT22;1971;51.778;10.330;2023-03-14T12:42:03;7.90;99.90
3912;DHT22;1971;51.778;10.330;2023-03-14T12:44:47;7.80;99.90
3912;DHT22;1971;51.778;10.330;2023-03-14T12:47:44;6.60;99.90
3912;DHT22;1971;51.778;10.330;2023-03-14T12:50:24;6.00;99.90
3912;DHT22;1971;51.778;10.330;2023-03-14T12:53:10;5.80;99.90
3912;DHT22;1971;51.778;10.330;2023-03-14T12:55:51;5.50;99.90
3912;DHT22;1971;51.778;10.330;2023-03-14T12:58:31;5.20;99.90
3912;DHT22;1971;51.778;10.330;2023-03-14T13:01:03;5.20;99.90
3912;DHT22;1971;51.778;10.330;2023-03-14T13:03:39;4.90;99.90
3912;DHT22;1971;51.778;10.330;2023-03-14T13:06:12;4.60;99.90
3912;DHT22;1971;51.778;10.330;2023-03-14T13:08:43;4.40;99.90
3912;DHT22;1971;51.778;10.330;2023-03-14T13:11:19;4.40;99.90
3912;DHT22;1971;51.778;10.330;2023-03-14T13:13:56;4.60;99.90
3912;DHT22;1971;51.778;10.330;2023-03-14T13:16:27;4.40;99.90
3912;DHT22;1971;51.778;10.330;2023-03-14T13:19:02;4.20;99.90
3912;DHT22;1971;51.778;10.330;2023-03-14T13:21:35;4.50;99.90
3912;DHT22;1971;51.778;10.330;2023-03-14T13:24:20;3.90;99.90
3912;DHT22;1971;51.778;10.330;2023-03-14T13:26:54;3.70;99.90
3912;DHT22;1971;51.778;10.330;2023-03-14T13:29:27;3.90;99.90
3912;DHT22;1971;51.778;10.330;2023-03-14T13:32:00;3.90;99.90
3912;DHT22;1971;51.778;10.330;2023-03-14T13:34:32;3.20;99.90
3912;DHT22;1971;51.778;10.330;2023-03-14T13:37:03;3.20;99.90
3912;DHT22;1971;51.778;10.330;2023-03-14T13:39:33;3.10;99.90
3912;DHT22;1971;51.778;10.330;2023-03-14T13:42:14;3.20;99.90
3912;DHT22;1971;51.778;10.330;2023-03-14T13:44:46;2.90;99.90
3912;DHT22;1971;51.778;10.330;2023-03-14T13:47:18;2.70;99.90
3912;DHT22;1971;51.778;10.330;2023-03-14T13:49:49;2.50;99.90
3912;DHT22;1971;51.778;10.330;2023-03-14T13:52:31;2.40;99.90
3912;DHT22;1971;51.778;10.330;2023-03-14T13:55:04;2.30;99.90
3912;DHT22;1971;51.778;10.330;2023-03-14T13:57:48;2.30;99.90
3912;DHT22;1971;51.778;10.330;2023-03-14T14:00:23;2.10;99.90
3912;DHT22;1971;51.778;10.330;2023-03-14T14:02:55;2.50;99.90
3912;DHT22;1971;51.778;10.330;2023-03-14T14:05:27;2.60;99.90
3912;DHT22;1971;51.778;10.330;2023-03-14T14:07:58;2.50;99.90
3912;DHT22;1971;51.778;10.330;2023-03-14T14:10:29;2.30;99.90
3912;DHT22;1971;51.778;10.330;2023-03-14T14:13:03;2.20;99.90
3912;DHT22;1971;51.778;10.330;2023-03-14T14:15:39;2.00;99.90
3912;DHT22;1971;51.778;10.330;2023-03-14T14:18:13;2.10;99.90
3912;DHT22;1971;51.778;10.330;2023-03-14T14:20:45;1.90;99.90
3912;DHT22;1971;51.778;10.330;2023-03-14T14:23:19;1.80;99.90
3912;DHT22;1971;51.778;10.330;2023-03-14T14:25:52;2.00;99.90
3912;DHT22;1971;51.778;10.330;2023-03-14T14:28:28;2.00;99.90
3912;DHT22;1971;51.778;10.330;2023-03-14T14:31:04;2.20;99.90
3912;DHT22;1971;51.778;10.330;2023-03-14T14:33:40;2.00;99.90
3912;DHT22;1971;51.778;10.330;2023-03-14T14:36:18;2.00;99.90
3912;DHT22;1971;51.778;10.330;2023-03-14T14:38:53;1.80;99.90
3912;DHT22;1971;51.778;10.330;2023-03-14T14:41:27;1.80;99.90
3912;DHT22;1971;51.778;10.330;2023-03-14T14:44:04;1.90;99.90
3912;DHT22;1971;51.778;10.330;2023-03-14T14:46:36;1.90;99.90
3912;DHT22;1971;51.778;10.330;2023-03-14T14:49:10;1.80;99.90
3912;DHT22;1971;51.778;10.330;2023-03-14T14:51:44;1.70;99.90
3912;DHT22;1971;51.778;10.330;2023-03-14T14:54:16;1.90;99.90
3912;DHT22;1971;51.778;10.330;2023-03-14T14:56:49;1.70;99.90
3912;DHT22;1971;51.778;10.330;2023-03-14T14:59:25;1.70;99.90
3912;DHT22;1971;51.778;10.330;2023-03-14T15:01:57;1.80;99.90
3912;DHT22;1971;51.778;10.330;2023-03-14T15:04:30;1.70;99.90
3912;DHT22;1971;51.778;10.330;2023-03-14T15:07:00;1.60;99.90
3912;DHT22;1971;51.778;10.330;2023-03-14T15:09:30;1.70;99.90
3912;DHT22;1971;51.778;10.330;2023-03-14T15:12:00;1.80;99.90
3912;DHT22;1971;51.778;10.330;2023-03-14T15:14:33;1.50;99.90
3912;DHT22;1971;51.778;10.330;2023-03-14T15:17:03;1.70;99.90
3912;DHT22;1971;51.778;10.330;2023-03-14T15:19:34;1.50;99.90
3912;DHT22;1971;51.778;10.330;2023-03-14T15:22:07;1.60;99.90
3912;DHT22;1971;51.778;10.330;2023-03-14T15:24:38;1.60;99.90
3912;DHT22;1971;51.778;10.330;2023-03-14T15:27:13;1.50;99.90
3912;DHT22;1971;51.778;10.330;2023-03-14T15:32:54;2.00;99.90
3912;DHT22;1971;51.778;10.330;2023-03-14T15:35:36;1.40;99.90
3912;DHT22;1971;51.778;10.330;2023-03-14T15:38:15;2.00;99.90
3912;DHT22;1971;51.778;10.330;2023-03-14T15:40:50;1.90;99.90
3912;DHT22;1971;51.778;10.330;2023-03-14T15:43:20;1.60;99.90
3912;DHT22;1971;51.778;10.330;2023-03-14T15:45:50;1.80;99.90
3912;DHT22;1971;51.778;10.330;2023-03-14T15:48:23;1.70;99.90
3912;DHT22;1971;51.778;10.330;2023-03-14T15:50:53;1.60;99.90
3912;DHT22;1971;51.778;10.330;2023-03-14T15:53:23;1.70;99.90
3912;DHT22;1971;51.778;10.330;2023-03-14T15:55:54;1.90;99.90
3912;DHT22;1971;51.778;10.330;2023-03-14T15:58:24;1.90;99.90
3912;DHT22;1971;51.778;10.330;2023-03-14T16:00:54;1.90;99.90
3912;DHT22;1971;51.778;10.330;2023-03-14T16:03:27;1.80;99.90
3912;DHT22;1971;51.778;10.330;2023-03-14T16:05:57;1.90;99.90
3912;DHT22;1971;51.778;10.330;2023-03-14T16:08:27;1.80;99.90
3912;DHT22;1971;51.778;10.330;2023-03-14T16:10:59;1.80;99.90
3912;DHT22;1971;51.778;10.330;2023-03-14T16:13:29;1.90;99.90
3912;DHT22;1971;51.778;10.330;2023-03-14T16:16:01;1.90;99.90
3912;DHT22;1971;51.778;10.330;2023-03-14T16:18:36;1.90;99.90
3912;DHT22;1971;51.778;10.330;2023-03-14T16:21:10;1.70;99.90
3912;DHT22;1971;51.778;10.330;2023-03-14T16:23:40;2.00;99.90
3912;DHT22;1971;51.778;10.330;2023-03-14T16:26:13;1.80;99.90
3912;DHT22;1971;51.778;10.330;2023-03-14T16:28:45;1.80;99.90
3912;DHT22;1971;51.778;10.330;2023-03-14T16:34:24;1.90;99.90
3912;DHT22;1971;51.778;10.330;2023-03-14T16:36:55;1.80;99.90
3912;DHT22;1971;51.778;10.330;2023-03-14T16:39:25;1.90;99.90
3912;DHT22;1971;51.778;10.330;2023-03-14T16:41:58;1.70;99.90
3912;DHT22;1971;51.778;10.330;2023-03-14T16:44:28;1.60;99.90
3912;DHT22;1971;51.778;10.330;2023-03-14T16:46:59;1.80;99.90
3912;DHT22;1971;51.778;10.330;2023-03-14T16:49:33;2.10;99.90
3912;DHT22;1971;51.778;10.330;2023-03-14T16:52:03;1.60;99.90
3912;DHT22;1971;51.778;10.330;2023-03-14T16:54:34;1.60;99.90
3912;DHT22;1971;51.778;10.330;2023-03-14T16:57:04;1.90;99.90
3912;DHT22;1971;51.778;10.330;2023-03-14T16:59:34;1.80;99.90
3912;DHT22;1971;51.778;10.330;2023-03-14T17:02:04;1.70;99.90
3912;DHT22;1971;51.778;10.330;2023-03-14T17:04:39;1.70;99.90
3912;DHT22;1971;51.778;10.330;2023-03-14T17:07:09;1.50;99.90